Nearby METAR Reports

 

CYUL - Montreal/Dorval, Quebec, Canada
Distance from station: ENE 6km
Updated: 08/21/2018 03:00 EDT
NOT Current
Mostly cloudy
Mostly cloudy
 Wind from varies
Wind: varies 4 km/h
Temperature: 20°C
Dew Point: 15°C
Humidity: 73%
Barometer: 1018.3 hPa
Clouds: Mostly cloudy
Visibility: 24 km
Cloud details: Mostly cloudy 2134 m
2018/08/21 07:00 CYUL 210700Z VRB02KT 15SM BKN070 20/15 A3007 RMK AC7 SLP185 DENSITY ALT 600FT
CWVQ - Ste Anne De Bell, Quebec, Canada
Distance from station: WSW 10km
Updated: 08/21/2018 03:00 EDT
NOT Current

 Wind from calm
Wind: Calm
Temperature: 18°C
Dew Point: 16°C
Humidity: 88%
2018/08/21 07:00 CWVQ 210700Z AUTO 00000KT 18/16 RMK AO1 SLP183 T01760161 58007
 
CWTA - Mc Tavish (aut), Quebec, Canada
Distance from station: ENE 18km
Updated: 08/21/2018 03:00 EDT
NOT Current

 Wind from S
Wind: S 4 km/h
Temperature: 21°C
Dew Point: 16°C
Humidity: 73%
2018/08/21 07:00 CWTA 210700Z AUTO 19002KT 21/16 RMK AO1 SLP186 T02070155 58006
CYMX - Montreal/Mirabel, Quebec, Canada
Distance from station: NW 29km
Updated: 08/21/2018 03:00 EDT
NOT Current
Mostly cloudy
Mostly cloudy
 Wind from calm
Wind: Calm
Temperature: 17°C
Dew Point: 15°C
Humidity: 88%
Barometer: 1018.6 hPa
Clouds: Mostly cloudy
Visibility: 40 km
Cloud details: Mostly cloudy 2103 m
2018/08/21 07:00 CYMX 210700Z 00000KT 25SM BKN069 17/15 A3008 RMK AC6 SLP189 DENSITY ALT 400FT
 
CYHU - Saint Hubert Arp, Quebec, Canada
Distance from station: ENE 31km
Updated: 08/21/2018 03:00 EDT
NOT Current
Mostly cloudy
Mostly cloudy
 Wind from S
Wind: S 6 km/h
Temperature: 17°C
Dew Point: 15°C
Humidity: 88%
Barometer: 1018.6 hPa
Clouds: Mostly cloudy
Visibility: 14 km
Cloud details: Mostly cloudy 2134 m
2018/08/21 07:00 CYHU 210700Z AUTO 17003KT 9SM BKN070 17/15 A3008 RMK SLP188 DENSITY ALT 100FT
CWIT - St Clothilde (a, Quebec, Canada
Distance from station: SSE 33km
Updated: 08/21/2018 03:00 EDT
NOT Current

 Wind from W
Wind: W 2 km/h
Temperature: 15°C
Dew Point: 14°C
Humidity: 94%
2018/08/21 07:00 CWIT 210700Z AUTO 26001KT 15/14 RMK AO1 SLP182 T01470140 56008
 
CWIZ - L'acadie, Quebec, Canada
Distance from station: ESE 41km
Updated: 08/21/2018 03:00 EDT
NOT Current

 Wind from SE
Wind: SE 7 km/h
Temperature: 17°C
Dew Point: 15°C
Humidity: 88%
2018/08/21 07:00 CWIZ 210700Z AUTO 14004KT 17/15 RMK AO1 T01690153
CWHM - Varennes, Quebec, Canada
Distance from station: NE 45km
Updated: 10/25/2016 10:00 EDT
NOT Current

 Wind from W
Wind: W 19 km/h, Gust: 28 km/h
Temperature: 4°C
Wind Chill: 0°C
Dew Point: -2°C
Humidity: 65%
2016/10/25 14:00 CWHM 251400Z AUTO 28010G15KT 04/M02 RMK AO1 PK WND 28018/1302 T00391017
 
CWEW - L'assomption, Quebec, Canada
Distance from station: NE 50km
Updated: 08/21/2018 03:00 EDT
NOT Current

 Wind from N
Wind: N 2 km/h
Temperature: 17°C
Dew Point: 16°C
Humidity: 94%
2018/08/21 07:00 CWEW 210700Z AUTO 01001KT 17/16 RMK AO1 SLP193 T01660160 58004
CWBZ - St Anicet, Quebec, Canada
Distance from station: SW 52km
Updated: 08/21/2018 03:00 EDT
NOT Current

 Wind from calm
Wind: Calm
Temperature: 14°C
Dew Point: 13°C
Humidity: 94%
2018/08/21 07:00 CWBZ 210700Z AUTO 00000KT 14/13 RMK AO1 SLP176 T01370130 58008
 
KFSO - Highgate, Vermont, USA
Distance from station: SE 79km
Updated: 08/21/2018 22:15 EDT
Overcast
Overcast
 Wind from SSE
Wind: SSE 15 km/h
Temperature: 22°C
Dew Point: 16°C
Humidity: 69%
Barometer: 1010.2 hPa
Clouds: Overcast
Visibility: 16 km
Cloud details: Partly cloudy 2286 m
Overcast 3048 m
2018/08/22 02:15 KFSO 220215Z AUTO 16008KT 10SM SCT075 OVC100 22/16 A2983 RMK AO2 T02210157
CMGB - Granby, Quebec, Canada
Distance from station: E 81km
Updated: 08/21/2018 03:45 EDT
NOT Current

 Wind from calm
Wind: Calm
Temperature: 15°C
Dew Point: 14°C
Humidity: 94%
2018/08/21 07:45 CMGB 210745Z AUTO 00000KT 15/14 RMK AO1 SLP188 T01490139 58008
 
CWJT - St Jovite (autob, Quebec, Canada
Distance from station: NW 88km
Updated: 08/21/2018 03:00 EDT
NOT Current

 Wind from calm
Wind: Calm
Temperature: 13°C
Dew Point: 12°C
Humidity: 94%
2018/08/21 07:00 CWJT 210700Z AUTO 00000KT 13/12 RMK AO1 SLP181 T01280115 58012
CWFQ - Frelighsburg, Quebec, Canada
Distance from station: ESE 90km
Updated: 08/21/2018 03:00 EDT
NOT Current

 Wind from SSE
Wind: SSE 6 km/h
Temperature: 16°C
Dew Point: 13°C
Humidity: 83%
2018/08/21 07:00 CWFQ 210700Z AUTO 16003KT 16/13 RMK AO1 SLP190 T01550129 58011
 
KPBG - Plattsburgh Afb, New York, USA
Distance from station: SSE 93km
Updated: 08/21/2018 21:53 EDT
Mostly cloudy
Mostly cloudy
 Wind from SSE
Wind: SSE 20 km/h, Gust: 35 km/h
Temperature: 23°C
Dew Point: 16°C
Humidity: 65%
Barometer: 1010.2 hPa
Clouds: Mostly cloudy
Visibility: 16 km
Cloud details: Partly cloudy 1463 m
Mostly cloudy 2591 m
2018/08/22 01:53 KPBG 220153Z AUTO 16011G19KT 10SM SCT048 BKN085 23/16 A2983 RMK AO2 SLP101 T02280161
KMSS - Massena, New York, USA
Distance from station: SW 100km
Updated: 08/21/2018 21:53 EDT
Partly cloudy
Partly cloudy
 Wind from SSE
Wind: SSE 11 km/h
Temperature: 21°C
Dew Point: 19°C
Humidity: 88%
Barometer: 1007.5 hPa
Clouds: Partly cloudy
Visibility: 16 km
Cloud details: Partly cloudy 1341 m
Partly cloudy 1981 m
2018/08/22 01:53 KMSS 220153Z AUTO 15006KT 10SM SCT044 SCT065 21/19 A2975 RMK AO2 SLP074 T02110189
 
CWBS - Lac St Pierre (a, Quebec, Canada
Distance from station: NE 106km
Updated: 08/21/2018 03:00 EDT
NOT Current

 Wind from NNW
Wind: NNW 11 km/h
Temperature: 19°C
Dew Point: 17°C
Humidity: 88%
2018/08/21 07:00 CWBS 210700Z AUTO 34006KT 19/17 RMK AO1 T01890166
KBTV - Burlington, Vermont, USA
Distance from station: SSE 121km
Updated: 08/21/2018 21:54 EDT
Mostly cloudy
Mostly cloudy
 Wind from SSE
Wind: SSE 19 km/h
Temperature: 24°C
Dew Point: 15°C
Humidity: 57%
Barometer: 1010.8 hPa
Clouds: Mostly cloudy
Visibility: 16 km
Cloud details: Few Clouds 1981 m
Mostly cloudy 2896 m
Mostly cloudy 3658 m
2018/08/22 01:54 KBTV 220154Z 16010KT 10SM FEW065 BKN095 BKN120 24/15 A2985 RMK AO2 SLP107 T02390150
 
KSLK - Saranac Lake, New York, USA
Distance from station: SSW 121km
Updated: 08/21/2018 21:51 EDT
Mostly cloudy
Mostly cloudy
 Wind from S
Wind: S 15 km/h
Temperature: 19°C
Dew Point: 16°C
Humidity: 83%
Barometer: 1010.8 hPa
Clouds: Mostly cloudy
Visibility: 16 km
Cloud details: Partly cloudy 945 m
Mostly cloudy 1250 m
2018/08/22 01:51 KSLK 220151Z AUTO 17008KT 10SM SCT031 BKN041 19/16 A2985 RMK AO2 SLP100 T01940161
CWNQ - Nicolet (autob), Quebec, Canada
Distance from station: NE 123km
Updated: 08/21/2018 03:00 EDT
NOT Current

 Wind from ENE
Wind: ENE 2 km/h
Temperature: 15°C
Dew Point: 15°C
Humidity: 100%
2018/08/21 07:00 CWNQ 210700Z AUTO 07001KT 15/15 RMK AO1 SLP186 T01530148 56006
 
KMWN - Mount Washington, New Hampshire, USA
Distance from station: SE 237km
Updated: 08/21/2018 21:52 EDT

 Wind from SW
Wind: SW 37 km/h, Gust: 48 km/h
Visibility: 80 km
2018/08/22 01:52 KMWN 220152Z 22020G26KT 50SM BKN/// FEW060 SCT100 SCT120 10/09 RMK
CYVR - Vancouver Intl A, British Columbia, Canada
Distance from station: NW 3676km
Updated: 08/21/2018 03:00 EDT
NOT Current
Smoke, Mostly cloudy
Smoke, Mostly cloudy
 Wind from varies
Wind: varies 4 km/h
Temperature: 17°C
Dew Point: 15°C
Humidity: 88%
Barometer: 1016.3 hPa
Summary: Smoke
Clouds: Mostly cloudy
Visibility: 2 km
Cloud details: Mostly cloudy 6706 m
2018/08/21 07:00 CYVR 210700Z VRB02KT 2 1/2SM FU BKN220 17/15 A3001 RMK FU5CI1 SLP165 DENSITY ALT 200FT